sensor_id;sensor_type;location;lat;lon;timestamp;P1;durP1;ratioP1;P2;durP2;ratioP2
66751;SDS011;53663;42.676;23.238;2023-05-07T00:00:19;13.23;;;6.53;;
66751;SDS011;53663;42.676;23.238;2023-05-07T00:02:45;10.30;;;6.13;;
66751;SDS011;53663;42.676;23.238;2023-05-07T00:05:11;11.95;;;6.40;;
66751;SDS011;53663;42.676;23.238;2023-05-07T00:07:37;13.70;;;5.97;;
66751;SDS011;53663;42.676;23.238;2023-05-07T00:10:03;12.65;;;5.53;;
66751;SDS011;53663;42.676;23.238;2023-05-07T00:12:29;11.07;;;5.72;;
66751;SDS011;53663;42.676;23.238;2023-05-07T00:14:59;17.45;;;6.10;;
66751;SDS011;53663;42.676;23.238;2023-05-07T00:17:25;8.35;;;5.20;;
66751;SDS011;53663;42.676;23.238;2023-05-07T00:19:51;8.35;;;5.40;;
66751;SDS011;53663;42.676;23.238;2023-05-07T00:22:16;11.77;;;5.47;;
66751;SDS011;53663;42.676;23.238;2023-05-07T00:24:42;12.48;;;5.75;;
66751;SDS011;53663;42.676;23.238;2023-05-07T00:27:08;12.27;;;5.63;;
66751;SDS011;53663;42.676;23.238;2023-05-07T00:29:33;8.73;;;4.90;;
66751;SDS011;53663;42.676;23.238;2023-05-07T00:31:59;9.95;;;5.32;;
66751;SDS011;53663;42.676;23.238;2023-05-07T00:34:25;10.68;;;5.93;;
66751;SDS011;53663;42.676;23.238;2023-05-07T00:36:50;11.63;;;5.60;;
66751;SDS011;53663;42.676;23.238;2023-05-07T00:39:15;8.18;;;5.63;;
66751;SDS011;53663;42.676;23.238;2023-05-07T00:41:41;7.68;;;5.28;;
66751;SDS011;53663;42.676;23.238;2023-05-07T00:44:07;8.75;;;5.40;;
66751;SDS011;53663;42.676;23.238;2023-05-07T00:46:32;10.85;;;5.40;;
66751;SDS011;53663;42.676;23.238;2023-05-07T00:48:59;9.02;;;5.47;;
66751;SDS011;53663;42.676;23.238;2023-05-07T00:51:25;9.00;;;5.28;;
66751;SDS011;53663;42.676;23.238;2023-05-07T00:53:52;8.35;;;5.50;;
66751;SDS011;53663;42.676;23.238;2023-05-07T00:56:19;11.77;;;6.03;;
66751;SDS011;53663;42.676;23.238;2023-05-07T00:58:46;9.10;;;5.50;;
66751;SDS011;53663;42.676;23.238;2023-05-07T01:01:12;12.15;;;5.97;;
66751;SDS011;53663;42.676;23.238;2023-05-07T01:03:38;9.00;;;5.35;;
66751;SDS011;53663;42.676;23.238;2023-05-07T01:06:03;12.95;;;6.20;;
66751;SDS011;53663;42.676;23.238;2023-05-07T01:08:31;10.75;;;6.03;;
66751;SDS011;53663;42.676;23.238;2023-05-07T01:10:57;11.20;;;5.97;;
66751;SDS011;53663;42.676;23.238;2023-05-07T01:13:24;14.38;;;6.28;;
66751;SDS011;53663;42.676;23.238;2023-05-07T01:15:50;11.05;;;5.78;;
66751;SDS011;53663;42.676;23.238;2023-05-07T01:18:15;8.70;;;6.03;;
66751;SDS011;53663;42.676;23.238;2023-05-07T01:20:42;9.82;;;5.45;;
66751;SDS011;53663;42.676;23.238;2023-05-07T01:23:07;7.97;;;5.70;;
66751;SDS011;53663;42.676;23.238;2023-05-07T01:25:35;9.63;;;5.90;;
66751;SDS011;53663;42.676;23.238;2023-05-07T01:28:01;12.23;;;5.35;;
66751;SDS011;53663;42.676;23.238;2023-05-07T01:30:29;9.80;;;5.75;;
66751;SDS011;53663;42.676;23.238;2023-05-07T01:33:01;12.20;;;6.78;;
66751;SDS011;53663;42.676;23.238;2023-05-07T01:35:36;9.35;;;6.22;;
66751;SDS011;53663;42.676;23.238;2023-05-07T01:38:04;8.80;;;5.40;;
66751;SDS011;53663;42.676;23.238;2023-05-07T01:40:31;9.10;;;5.97;;
66751;SDS011;53663;42.676;23.238;2023-05-07T01:42:56;10.15;;;5.63;;
66751;SDS011;53663;42.676;23.238;2023-05-07T01:45:22;9.88;;;6.35;;
66751;SDS011;53663;42.676;23.238;2023-05-07T01:47:49;10.10;;;6.00;;
66751;SDS011;53663;42.676;23.238;2023-05-07T01:50:15;7.63;;;5.32;;
66751;SDS011;53663;42.676;23.238;2023-05-07T01:52:43;9.98;;;5.93;;
66751;SDS011;53663;42.676;23.238;2023-05-07T01:55:09;10.00;;;5.78;;
66751;SDS011;53663;42.676;23.238;2023-05-07T01:57:35;11.10;;;6.15;;
66751;SDS011;53663;42.676;23.238;2023-05-07T02:00:01;10.35;;;6.55;;
66751;SDS011;53663;42.676;23.238;2023-05-07T02:02:28;17.25;;;6.90;;
66751;SDS011;53663;42.676;23.238;2023-05-07T02:04:56;10.23;;;6.05;;
66751;SDS011;53663;42.676;23.238;2023-05-07T02:07:22;16.20;;;6.68;;
66751;SDS011;53663;42.676;23.238;2023-05-07T02:09:47;14.85;;;6.32;;
66751;SDS011;53663;42.676;23.238;2023-05-07T02:12:13;12.13;;;7.40;;
66751;SDS011;53663;42.676;23.238;2023-05-07T02:14:38;10.00;;;6.40;;
66751;SDS011;53663;42.676;23.238;2023-05-07T02:17:05;11.25;;;6.93;;
66751;SDS011;53663;42.676;23.238;2023-05-07T02:19:31;13.73;;;7.25;;
66751;SDS011;53663;42.676;23.238;2023-05-07T02:21:56;11.32;;;6.70;;
66751;SDS011;53663;42.676;23.238;2023-05-07T02:24:22;15.10;;;7.10;;
66751;SDS011;53663;42.676;23.238;2023-05-07T02:26:47;11.60;;;6.68;;
66751;SDS011;53663;42.676;23.238;2023-05-07T02:29:13;12.00;;;7.78;;
66751;SDS011;53663;42.676;23.238;2023-05-07T02:31:39;13.20;;;7.03;;
66751;SDS011;53663;42.676;23.238;2023-05-07T02:34:05;12.90;;;7.43;;
66751;SDS011;53663;42.676;23.238;2023-05-07T02:36:31;12.73;;;7.03;;
66751;SDS011;53663;42.676;23.238;2023-05-07T02:39:05;13.00;;;7.57;;
66751;SDS011;53663;42.676;23.238;2023-05-07T02:41:30;11.60;;;8.25;;
66751;SDS011;53663;42.676;23.238;2023-05-07T02:43:56;10.02;;;7.25;;
66751;SDS011;53663;42.676;23.238;2023-05-07T02:46:21;12.98;;;7.57;;
66751;SDS011;53663;42.676;23.238;2023-05-07T02:48:55;10.73;;;6.80;;
66751;SDS011;53663;42.676;23.238;2023-05-07T02:51:21;12.43;;;7.30;;
66751;SDS011;53663;42.676;23.238;2023-05-07T02:53:47;12.65;;;7.68;;
66751;SDS011;53663;42.676;23.238;2023-05-07T02:56:13;17.75;;;7.72;;
66751;SDS011;53663;42.676;23.238;2023-05-07T02:58:38;16.38;;;7.32;;
66751;SDS011;53663;42.676;23.238;2023-05-07T03:01:11;13.13;;;7.18;;
66751;SDS011;53663;42.676;23.238;2023-05-07T03:04:03;18.48;;;6.75;;
66751;SDS011;53663;42.676;23.238;2023-05-07T03:06:28;11.60;;;7.55;;
66751;SDS011;53663;42.676;23.238;2023-05-07T03:08:54;10.75;;;7.20;;
66751;SDS011;53663;42.676;23.238;2023-05-07T03:11:19;13.02;;;7.55;;
66751;SDS011;53663;42.676;23.238;2023-05-07T03:13:46;15.82;;;7.88;;
66751;SDS011;53663;42.676;23.238;2023-05-07T03:16:12;16.55;;;7.25;;
66751;SDS011;53663;42.676;23.238;2023-05-07T03:18:37;10.82;;;7.65;;
66751;SDS011;53663;42.676;23.238;2023-05-07T03:21:03;10.43;;;7.15;;
66751;SDS011;53663;42.676;23.238;2023-05-07T03:23:28;10.00;;;6.90;;
66751;SDS011;53663;42.676;23.238;2023-05-07T03:25:54;12.00;;;7.55;;
66751;SDS011;53663;42.676;23.238;2023-05-07T03:28:20;11.52;;;7.15;;
66751;SDS011;53663;42.676;23.238;2023-05-07T03:33:16;11.65;;;6.78;;
66751;SDS011;53663;42.676;23.238;2023-05-07T03:35:41;11.90;;;6.68;;
66751;SDS011;53663;42.676;23.238;2023-05-07T03:38:07;11.13;;;7.30;;
66751;SDS011;53663;42.676;23.238;2023-05-07T03:40:35;13.18;;;7.13;;
66751;SDS011;53663;42.676;23.238;2023-05-07T03:43:02;13.63;;;7.30;;
66751;SDS011;53663;42.676;23.238;2023-05-07T03:45:29;11.18;;;7.75;;
66751;SDS011;53663;42.676;23.238;2023-05-07T03:48:05;10.68;;;6.68;;
66751;SDS011;53663;42.676;23.238;2023-05-07T03:50:30;10.85;;;7.10;;
66751;SDS011;53663;42.676;23.238;2023-05-07T03:52:56;15.18;;;7.72;;
66751;SDS011;53663;42.676;23.238;2023-05-07T03:55:22;10.50;;;7.38;;
66751;SDS011;53663;42.676;23.238;2023-05-07T03:57:53;10.82;;;7.30;;
66751;SDS011;53663;42.676;23.238;2023-05-07T04:00:19;13.65;;;7.55;;
66751;SDS011;53663;42.676;23.238;2023-05-07T04:02:48;12.48;;;7.15;;
66751;SDS011;53663;42.676;23.238;2023-05-07T04:05:16;10.88;;;7.45;;
66751;SDS011;53663;42.676;23.238;2023-05-07T04:07:44;10.30;;;7.03;;
66751;SDS011;53663;42.676;23.238;2023-05-07T04:10:12;14.50;;;8.23;;
66751;SDS011;53663;42.676;23.238;2023-05-07T04:12:40;18.25;;;7.70;;
66751;SDS011;53663;42.676;23.238;2023-05-07T04:15:07;16.45;;;7.10;;
66751;SDS011;53663;42.676;23.238;2023-05-07T04:17:33;10.75;;;7.45;;
66751;SDS011;53663;42.676;23.238;2023-05-07T04:20:00;11.55;;;7.13;;
66751;SDS011;53663;42.676;23.238;2023-05-07T04:22:26;12.55;;;7.50;;
66751;SDS011;53663;42.676;23.238;2023-05-07T04:24:52;15.93;;;7.38;;
66751;SDS011;53663;42.676;23.238;2023-05-07T04:27:18;12.63;;;7.15;;
66751;SDS011;53663;42.676;23.238;2023-05-07T04:29:43;10.27;;;6.65;;
66751;SDS011;53663;42.676;23.238;2023-05-07T04:32:13;10.38;;;6.65;;
66751;SDS011;53663;42.676;23.238;2023-05-07T04:34:39;12.70;;;6.93;;
66751;SDS011;53663;42.676;23.238;2023-05-07T04:37:06;10.88;;;6.20;;
66751;SDS011;53663;42.676;23.238;2023-05-07T04:39:32;11.35;;;6.65;;
66751;SDS011;53663;42.676;23.238;2023-05-07T04:41:57;8.57;;;6.00;;
66751;SDS011;53663;42.676;23.238;2023-05-07T04:44:23;17.17;;;6.13;;
66751;SDS011;53663;42.676;23.238;2023-05-07T04:46:50;11.05;;;5.72;;
66751;SDS011;53663;42.676;23.238;2023-05-07T04:49:15;7.60;;;5.28;;
66751;SDS011;53663;42.676;23.238;2023-05-07T04:51:41;8.38;;;5.43;;
66751;SDS011;53663;42.676;23.238;2023-05-07T04:54:09;7.50;;;4.90;;
66751;SDS011;53663;42.676;23.238;2023-05-07T04:56:35;12.82;;;5.10;;
66751;SDS011;53663;42.676;23.238;2023-05-07T04:59:01;10.18;;;5.40;;
66751;SDS011;53663;42.676;23.238;2023-05-07T05:01:27;8.98;;;5.22;;
66751;SDS011;53663;42.676;23.238;2023-05-07T05:03:53;9.98;;;5.32;;
66751;SDS011;53663;42.676;23.238;2023-05-07T05:06:19;6.90;;;5.18;;
66751;SDS011;53663;42.676;23.238;2023-05-07T05:08:45;6.80;;;4.93;;
66751;SDS011;53663;42.676;23.238;2023-05-07T05:11:11;7.43;;;5.45;;
66751;SDS011;53663;42.676;23.238;2023-05-07T05:13:37;9.25;;;5.45;;
66751;SDS011;53663;42.676;23.238;2023-05-07T05:16:09;6.22;;;4.72;;
66751;SDS011;53663;42.676;23.238;2023-05-07T05:18:35;8.30;;;4.85;;
66751;SDS011;53663;42.676;23.238;2023-05-07T05:21:01;9.35;;;5.60;;
66751;SDS011;53663;42.676;23.238;2023-05-07T05:23:27;10.88;;;4.97;;
66751;SDS011;53663;42.676;23.238;2023-05-07T05:25:56;10.18;;;5.07;;
66751;SDS011;53663;42.676;23.238;2023-05-07T05:28:27;8.20;;;4.75;;
66751;SDS011;53663;42.676;23.238;2023-05-07T05:30:53;7.00;;;5.28;;
66751;SDS011;53663;42.676;23.238;2023-05-07T05:33:19;13.40;;;6.53;;
66751;SDS011;53663;42.676;23.238;2023-05-07T05:35:45;18.00;;;6.88;;
66751;SDS011;53663;42.676;23.238;2023-05-07T05:38:11;11.93;;;5.82;;
66751;SDS011;53663;42.676;23.238;2023-05-07T05:40:38;14.05;;;5.38;;
66751;SDS011;53663;42.676;23.238;2023-05-07T05:43:03;13.80;;;6.10;;
66751;SDS011;53663;42.676;23.238;2023-05-07T05:45:30;6.78;;;4.85;;
66751;SDS011;53663;42.676;23.238;2023-05-07T05:47:56;10.15;;;5.25;;
66751;SDS011;53663;42.676;23.238;2023-05-07T05:50:22;7.88;;;5.10;;
66751;SDS011;53663;42.676;23.238;2023-05-07T05:52:48;8.07;;;5.05;;
66751;SDS011;53663;42.676;23.238;2023-05-07T05:55:15;13.30;;;5.13;;
66751;SDS011;53663;42.676;23.238;2023-05-07T05:57:41;10.38;;;5.57;;
66751;SDS011;53663;42.676;23.238;2023-05-07T06:00:08;8.90;;;5.10;;
66751;SDS011;53663;42.676;23.238;2023-05-07T06:02:43;8.93;;;5.10;;
66751;SDS011;53663;42.676;23.238;2023-05-07T06:05:10;7.85;;;5.38;;
66751;SDS011;53663;42.676;23.238;2023-05-07T06:07:36;6.60;;;5.03;;
66751;SDS011;53663;42.676;23.238;2023-05-07T06:10:01;9.95;;;5.00;;
66751;SDS011;53663;42.676;23.238;2023-05-07T06:12:28;9.27;;;5.90;;
66751;SDS011;53663;42.676;23.238;2023-05-07T06:14:53;8.60;;;5.32;;
66751;SDS011;53663;42.676;23.238;2023-05-07T06:17:20;13.50;;;5.20;;
66751;SDS011;53663;42.676;23.238;2023-05-07T06:19:46;9.60;;;5.22;;
66751;SDS011;53663;42.676;23.238;2023-05-07T06:22:12;12.00;;;5.43;;
66751;SDS011;53663;42.676;23.238;2023-05-07T06:24:38;8.80;;;6.22;;
66751;SDS011;53663;42.676;23.238;2023-05-07T06:27:05;9.85;;;6.18;;
66751;SDS011;53663;42.676;23.238;2023-05-07T06:29:31;13.00;;;5.55;;
66751;SDS011;53663;42.676;23.238;2023-05-07T06:34:34;10.32;;;5.82;;
66751;SDS011;53663;42.676;23.238;2023-05-07T06:37:00;12.00;;;5.75;;
66751;SDS011;53663;42.676;23.238;2023-05-07T06:39:37;12.73;;;4.82;;
66751;SDS011;53663;42.676;23.238;2023-05-07T06:42:02;9.50;;;5.70;;
66751;SDS011;53663;42.676;23.238;2023-05-07T06:44:31;9.82;;;5.72;;
66751;SDS011;53663;42.676;23.238;2023-05-07T06:47:09;10.00;;;5.80;;
66751;SDS011;53663;42.676;23.238;2023-05-07T06:49:38;9.45;;;5.75;;
66751;SDS011;53663;42.676;23.238;2023-05-07T06:52:03;6.70;;;4.78;;
66751;SDS011;53663;42.676;23.238;2023-05-07T06:54:29;9.18;;;5.05;;
66751;SDS011;53663;42.676;23.238;2023-05-07T06:56:54;8.68;;;5.38;;
66751;SDS011;53663;42.676;23.238;2023-05-07T06:59:23;12.40;;;4.97;;
66751;SDS011;53663;42.676;23.238;2023-05-07T07:01:49;6.18;;;5.03;;
66751;SDS011;53663;42.676;23.238;2023-05-07T07:04:15;18.33;;;7.80;;
66751;SDS011;53663;42.676;23.238;2023-05-07T07:06:43;19.05;;;10.00;;
66751;SDS011;53663;42.676;23.238;2023-05-07T07:09:11;8.00;;;4.70;;
66751;SDS011;53663;42.676;23.238;2023-05-07T07:11:37;23.67;;;14.38;;
66751;SDS011;53663;42.676;23.238;2023-05-07T07:14:03;25.83;;;15.68;;
66751;SDS011;53663;42.676;23.238;2023-05-07T07:16:33;15.80;;;8.30;;
66751;SDS011;53663;42.676;23.238;2023-05-07T07:18:58;9.45;;;6.38;;
66751;SDS011;53663;42.676;23.238;2023-05-07T07:21:24;10.15;;;5.80;;
66751;SDS011;53663;42.676;23.238;2023-05-07T07:23:49;10.80;;;5.15;;
66751;SDS011;53663;42.676;23.238;2023-05-07T07:26:17;9.20;;;4.97;;
66751;SDS011;53663;42.676;23.238;2023-05-07T07:28:46;13.20;;;6.13;;
66751;SDS011;53663;42.676;23.238;2023-05-07T07:31:15;17.95;;;10.40;;
66751;SDS011;53663;42.676;23.238;2023-05-07T07:33:40;10.73;;;5.50;;
66751;SDS011;53663;42.676;23.238;2023-05-07T07:36:06;8.95;;;5.15;;
66751;SDS011;53663;42.676;23.238;2023-05-07T07:38:32;8.95;;;5.68;;
66751;SDS011;53663;42.676;23.238;2023-05-07T07:40:59;10.05;;;6.13;;
66751;SDS011;53663;42.676;23.238;2023-05-07T07:43:25;20.75;;;12.30;;
66751;SDS011;53663;42.676;23.238;2023-05-07T07:45:51;9.55;;;4.80;;
66751;SDS011;53663;42.676;23.238;2023-05-07T07:48:17;12.70;;;6.13;;
66751;SDS011;53663;42.676;23.238;2023-05-07T07:50:43;8.35;;;4.10;;
66751;SDS011;53663;42.676;23.238;2023-05-07T07:53:09;12.90;;;4.60;;
66751;SDS011;53663;42.676;23.238;2023-05-07T07:55:38;9.63;;;5.78;;
66751;SDS011;53663;42.676;23.238;2023-05-07T07:58:05;8.93;;;5.68;;
66751;SDS011;53663;42.676;23.238;2023-05-07T08:00:30;7.47;;;4.00;;
66751;SDS011;53663;42.676;23.238;2023-05-07T08:02:56;8.98;;;5.20;;
66751;SDS011;53663;42.676;23.238;2023-05-07T08:05:26;7.00;;;3.97;;
66751;SDS011;53663;42.676;23.238;2023-05-07T08:07:52;5.18;;;3.63;;
66751;SDS011;53663;42.676;23.238;2023-05-07T08:10:22;7.53;;;4.05;;
66751;SDS011;53663;42.676;23.238;2023-05-07T08:12:52;6.88;;;3.63;;
66751;SDS011;53663;42.676;23.238;2023-05-07T08:15:18;5.95;;;3.28;;
66751;SDS011;53663;42.676;23.238;2023-05-07T08:17:44;12.63;;;3.70;;
66751;SDS011;53663;42.676;23.238;2023-05-07T08:20:10;9.00;;;4.28;;
66751;SDS011;53663;42.676;23.238;2023-05-07T08:22:36;5.63;;;3.83;;
66751;SDS011;53663;42.676;23.238;2023-05-07T08:25:02;6.97;;;4.20;;
66751;SDS011;53663;42.676;23.238;2023-05-07T08:27:28;19.88;;;4.38;;
66751;SDS011;53663;42.676;23.238;2023-05-07T08:29:54;7.38;;;4.40;;
66751;SDS011;53663;42.676;23.238;2023-05-07T08:32:21;9.00;;;4.38;;
66751;SDS011;53663;42.676;23.238;2023-05-07T08:34:47;7.22;;;4.43;;
66751;SDS011;53663;42.676;23.238;2023-05-07T08:37:13;8.70;;;4.57;;
66751;SDS011;53663;42.676;23.238;2023-05-07T08:39:39;7.85;;;4.03;;
66751;SDS011;53663;42.676;23.238;2023-05-07T08:42:11;8.02;;;4.53;;
66751;SDS011;53663;42.676;23.238;2023-05-07T08:44:38;6.38;;;4.60;;
66751;SDS011;53663;42.676;23.238;2023-05-07T08:47:06;6.45;;;4.13;;
66751;SDS011;53663;42.676;23.238;2023-05-07T08:49:33;8.40;;;4.47;;
66751;SDS011;53663;42.676;23.238;2023-05-07T08:51:59;7.97;;;4.38;;
66751;SDS011;53663;42.676;23.238;2023-05-07T08:54:27;14.02;;;4.80;;
66751;SDS011;53663;42.676;23.238;2023-05-07T08:56:54;8.45;;;4.90;;
66751;SDS011;53663;42.676;23.238;2023-05-07T08:59:20;9.98;;;5.00;;
66751;SDS011;53663;42.676;23.238;2023-05-07T09:01:46;9.02;;;5.28;;
66751;SDS011;53663;42.676;23.238;2023-05-07T09:04:13;6.32;;;4.50;;
66751;SDS011;53663;42.676;23.238;2023-05-07T09:06:39;9.23;;;4.30;;
66751;SDS011;53663;42.676;23.238;2023-05-07T09:09:08;8.13;;;4.30;;
66751;SDS011;53663;42.676;23.238;2023-05-07T09:11:34;12.05;;;4.47;;
66751;SDS011;53663;42.676;23.238;2023-05-07T09:14:00;9.85;;;4.32;;
66751;SDS011;53663;42.676;23.238;2023-05-07T09:16:31;6.32;;;4.40;;
66751;SDS011;53663;42.676;23.238;2023-05-07T09:18:58;10.02;;;3.97;;
66751;SDS011;53663;42.676;23.238;2023-05-07T09:21:28;9.63;;;4.03;;
66751;SDS011;53663;42.676;23.238;2023-05-07T09:23:56;7.75;;;4.80;;
66751;SDS011;53663;42.676;23.238;2023-05-07T09:26:28;7.15;;;4.95;;
66751;SDS011;53663;42.676;23.238;2023-05-07T09:28:54;5.22;;;3.45;;
66751;SDS011;53663;42.676;23.238;2023-05-07T09:31:20;6.43;;;4.05;;
66751;SDS011;53663;42.676;23.238;2023-05-07T09:33:48;7.82;;;3.58;;
66751;SDS011;53663;42.676;23.238;2023-05-07T09:36:14;7.82;;;3.65;;
66751;SDS011;53663;42.676;23.238;2023-05-07T09:38:40;6.57;;;3.30;;
66751;SDS011;53663;42.676;23.238;2023-05-07T09:41:08;7.20;;;3.08;;
66751;SDS011;53663;42.676;23.238;2023-05-07T09:43:42;5.28;;;2.80;;
66751;SDS011;53663;42.676;23.238;2023-05-07T09:46:13;6.88;;;3.15;;
66751;SDS011;53663;42.676;23.238;2023-05-07T09:48:44;5.32;;;3.40;;
66751;SDS011;53663;42.676;23.238;2023-05-07T09:53:45;6.75;;;3.83;;
66751;SDS011;53663;42.676;23.238;2023-05-07T09:56:12;7.00;;;3.40;;
66751;SDS011;53663;42.676;23.238;2023-05-07T09:58:40;5.95;;;3.67;;
66751;SDS011;53663;42.676;23.238;2023-05-07T10:01:07;7.32;;;3.08;;
66751;SDS011;53663;42.676;23.238;2023-05-07T10:03:33;4.70;;;2.97;;
66751;SDS011;53663;42.676;23.238;2023-05-07T10:06:04;6.43;;;2.70;;
66751;SDS011;53663;42.676;23.238;2023-05-07T10:08:30;6.47;;;3.15;;
66751;SDS011;53663;42.676;23.238;2023-05-07T10:10:59;5.13;;;2.90;;
66751;SDS011;53663;42.676;23.238;2023-05-07T10:13:27;6.50;;;2.58;;
66751;SDS011;53663;42.676;23.238;2023-05-07T10:15:56;7.75;;;2.88;;
66751;SDS011;53663;42.676;23.238;2023-05-07T10:18:25;7.28;;;2.90;;
66751;SDS011;53663;42.676;23.238;2023-05-07T10:21:02;9.23;;;5.20;;
66751;SDS011;53663;42.676;23.238;2023-05-07T10:23:33;10.45;;;4.15;;
66751;SDS011;53663;42.676;23.238;2023-05-07T10:26:00;6.60;;;2.75;;
66751;SDS011;53663;42.676;23.238;2023-05-07T10:28:30;12.45;;;3.20;;
66751;SDS011;53663;42.676;23.238;2023-05-07T10:31:33;7.45;;;3.00;;
66751;SDS011;53663;42.676;23.238;2023-05-07T10:34:28;4.63;;;2.90;;
66751;SDS011;53663;42.676;23.238;2023-05-07T10:37:00;3.72;;;2.80;;
66751;SDS011;53663;42.676;23.238;2023-05-07T10:39:27;4.22;;;2.63;;
66751;SDS011;53663;42.676;23.238;2023-05-07T10:41:53;5.05;;;3.13;;
66751;SDS011;53663;42.676;23.238;2023-05-07T10:44:25;7.03;;;3.00;;
66751;SDS011;53663;42.676;23.238;2023-05-07T11:38:30;8.25;;;4.30;;
66751;SDS011;53663;42.676;23.238;2023-05-07T11:41:00;5.32;;;3.55;;
66751;SDS011;53663;42.676;23.238;2023-05-07T11:43:27;5.68;;;3.00;;
66751;SDS011;53663;42.676;23.238;2023-05-07T11:45:52;6.82;;;3.10;;
66751;SDS011;53663;42.676;23.238;2023-05-07T11:48:18;5.65;;;3.13;;
66751;SDS011;53663;42.676;23.238;2023-05-07T11:51:19;6.22;;;2.78;;
66751;SDS011;53663;42.676;23.238;2023-05-07T11:53:38;6.25;;;2.70;;
66751;SDS011;53663;42.676;23.238;2023-05-07T11:56:09;8.85;;;3.10;;
66751;SDS011;53663;42.676;23.238;2023-05-07T11:58:35;7.32;;;3.25;;
66751;SDS011;53663;42.676;23.238;2023-05-07T12:01:01;5.18;;;2.72;;
66751;SDS011;53663;42.676;23.238;2023-05-07T12:03:27;5.20;;;3.20;;
66751;SDS011;53663;42.676;23.238;2023-05-07T12:05:53;5.00;;;2.80;;
66751;SDS011;53663;42.676;23.238;2023-05-07T12:08:19;6.72;;;3.13;;
66751;SDS011;53663;42.676;23.238;2023-05-07T12:35:12;9.55;;;3.10;;
66751;SDS011;53663;42.676;23.238;2023-05-07T12:37:38;7.03;;;2.67;;
66751;SDS011;53663;42.676;23.238;2023-05-07T12:40:10;5.57;;;2.70;;
66751;SDS011;53663;42.676;23.238;2023-05-07T12:42:36;2.70;;;2.50;;
66751;SDS011;53663;42.676;23.238;2023-05-07T12:45:12;4.90;;;3.00;;
66751;SDS011;53663;42.676;23.238;2023-05-07T12:47:46;3.05;;;2.33;;
66751;SDS011;53663;42.676;23.238;2023-05-07T12:50:13;4.53;;;2.58;;
66751;SDS011;53663;42.676;23.238;2023-05-07T12:52:40;5.93;;;2.88;;
66751;SDS011;53663;42.676;23.238;2023-05-07T12:55:08;4.82;;;3.03;;
66751;SDS011;53663;42.676;23.238;2023-05-07T12:57:38;3.63;;;2.60;;
66751;SDS011;53663;42.676;23.238;2023-05-07T13:00:07;10.02;;;2.70;;
66751;SDS011;53663;42.676;23.238;2023-05-07T13:02:36;4.88;;;2.70;;
66751;SDS011;53663;42.676;23.238;2023-05-07T13:05:03;4.43;;;2.80;;
66751;SDS011;53663;42.676;23.238;2023-05-07T13:07:29;4.35;;;2.50;;
66751;SDS011;53663;42.676;23.238;2023-05-07T13:09:54;2.85;;;2.47;;
66751;SDS011;53663;42.676;23.238;2023-05-07T13:12:20;5.63;;;2.72;;
66751;SDS011;53663;42.676;23.238;2023-05-07T13:14:45;4.82;;;2.47;;
66751;SDS011;53663;42.676;23.238;2023-05-07T13:17:11;3.95;;;2.33;;
66751;SDS011;53663;42.676;23.238;2023-05-07T13:19:37;4.63;;;2.40;;
66751;SDS011;53663;42.676;23.238;2023-05-07T13:22:03;3.85;;;2.42;;
66751;SDS011;53663;42.676;23.238;2023-05-07T13:24:28;4.60;;;2.58;;
66751;SDS011;53663;42.676;23.238;2023-05-07T13:26:54;2.92;;;2.47;;
66751;SDS011;53663;42.676;23.238;2023-05-07T13:29:20;4.28;;;2.33;;
66751;SDS011;53663;42.676;23.238;2023-05-07T13:31:50;5.03;;;2.40;;
66751;SDS011;53663;42.676;23.238;2023-05-07T13:34:16;4.32;;;2.35;;
66751;SDS011;53663;42.676;23.238;2023-05-07T13:36:41;13.40;;;3.10;;
66751;SDS011;53663;42.676;23.238;2023-05-07T13:39:07;5.38;;;2.88;;
66751;SDS011;53663;42.676;23.238;2023-05-07T13:41:34;5.47;;;3.10;;
66751;SDS011;53663;42.676;23.238;2023-05-07T13:43:59;7.30;;;2.65;;
66751;SDS011;53663;42.676;23.238;2023-05-07T13:46:25;4.95;;;2.45;;
66751;SDS011;53663;42.676;23.238;2023-05-07T13:48:50;3.75;;;2.60;;
66751;SDS011;53663;42.676;23.238;2023-05-07T13:51:16;7.97;;;2.83;;
66751;SDS011;53663;42.676;23.238;2023-05-07T13:53:42;3.67;;;2.67;;
66751;SDS011;53663;42.676;23.238;2023-05-07T13:56:07;6.68;;;2.90;;
66751;SDS011;53663;42.676;23.238;2023-05-07T13:58:33;5.13;;;3.35;;
66751;SDS011;53663;42.676;23.238;2023-05-07T14:00:58;8.55;;;3.70;;
66751;SDS011;53663;42.676;23.238;2023-05-07T14:03:24;6.05;;;3.40;;
66751;SDS011;53663;42.676;23.238;2023-05-07T14:05:49;7.70;;;3.20;;
66751;SDS011;53663;42.676;23.238;2023-05-07T14:08:15;8.75;;;4.53;;
66751;SDS011;53663;42.676;23.238;2023-05-07T14:10:42;5.97;;;3.63;;
66751;SDS011;53663;42.676;23.238;2023-05-07T14:13:08;4.35;;;2.83;;
66751;SDS011;53663;42.676;23.238;2023-05-07T14:15:33;3.90;;;2.47;;
66751;SDS011;53663;42.676;23.238;2023-05-07T14:17:59;4.63;;;2.60;;
66751;SDS011;53663;42.676;23.238;2023-05-07T14:20:25;6.80;;;3.30;;
66751;SDS011;53663;42.676;23.238;2023-05-07T14:22:51;5.20;;;2.50;;
66751;SDS011;53663;42.676;23.238;2023-05-07T14:25:16;3.90;;;2.97;;
66751;SDS011;53663;42.676;23.238;2023-05-07T14:27:47;6.00;;;2.90;;
66751;SDS011;53663;42.676;23.238;2023-05-07T14:30:13;6.65;;;2.80;;
66751;SDS011;53663;42.676;23.238;2023-05-07T14:32:38;5.35;;;3.03;;
66751;SDS011;53663;42.676;23.238;2023-05-07T14:35:04;4.30;;;2.90;;
66751;SDS011;53663;42.676;23.238;2023-05-07T14:37:30;6.40;;;2.70;;
66751;SDS011;53663;42.676;23.238;2023-05-07T14:39:55;3.97;;;2.78;;
66751;SDS011;53663;42.676;23.238;2023-05-07T14:42:21;5.20;;;2.95;;
66751;SDS011;53663;42.676;23.238;2023-05-07T14:44:46;5.82;;;2.70;;
66751;SDS011;53663;42.676;23.238;2023-05-07T14:47:13;5.57;;;2.53;;
66751;SDS011;53663;42.676;23.238;2023-05-07T14:49:40;4.10;;;2.75;;
66751;SDS011;53663;42.676;23.238;2023-05-07T14:52:05;4.38;;;2.65;;
66751;SDS011;53663;42.676;23.238;2023-05-07T14:54:35;4.85;;;2.58;;
66751;SDS011;53663;42.676;23.238;2023-05-07T14:57:01;6.28;;;2.78;;
66751;SDS011;53663;42.676;23.238;2023-05-07T14:59:27;8.25;;;2.75;;
66751;SDS011;53663;42.676;23.238;2023-05-07T15:01:53;3.20;;;2.55;;
66751;SDS011;53663;42.676;23.238;2023-05-07T15:04:19;2.75;;;2.40;;
66751;SDS011;53663;42.676;23.238;2023-05-07T15:06:45;4.22;;;2.40;;
66751;SDS011;53663;42.676;23.238;2023-05-07T15:09:11;4.90;;;2.70;;
66751;SDS011;53663;42.676;23.238;2023-05-07T15:11:37;7.97;;;2.72;;
66751;SDS011;53663;42.676;23.238;2023-05-07T15:14:03;5.97;;;2.53;;
66751;SDS011;53663;42.676;23.238;2023-05-07T15:16:28;3.97;;;2.42;;
66751;SDS011;53663;42.676;23.238;2023-05-07T15:18:54;3.95;;;2.40;;
66751;SDS011;53663;42.676;23.238;2023-05-07T15:21:19;3.45;;;2.65;;
66751;SDS011;53663;42.676;23.238;2023-05-07T15:23:45;3.70;;;2.50;;
66751;SDS011;53663;42.676;23.238;2023-05-07T15:26:10;5.95;;;2.55;;
66751;SDS011;53663;42.676;23.238;2023-05-07T15:28:36;4.18;;;2.40;;
66751;SDS011;53663;42.676;23.238;2023-05-07T15:31:03;5.32;;;2.90;;
66751;SDS011;53663;42.676;23.238;2023-05-07T15:33:28;7.50;;;3.00;;
66751;SDS011;53663;42.676;23.238;2023-05-07T15:35:54;8.95;;;2.63;;
66751;SDS011;53663;42.676;23.238;2023-05-07T15:38:23;4.90;;;2.53;;
66751;SDS011;53663;42.676;23.238;2023-05-07T15:40:49;4.07;;;2.63;;
66751;SDS011;53663;42.676;23.238;2023-05-07T15:43:15;4.13;;;2.58;;
66751;SDS011;53663;42.676;23.238;2023-05-07T15:45:41;3.70;;;2.35;;
66751;SDS011;53663;42.676;23.238;2023-05-07T15:48:08;5.97;;;2.40;;
66751;SDS011;53663;42.676;23.238;2023-05-07T15:50:36;2.65;;;2.25;;